sensor_id;sensor_type;location;lat;lon;timestamp;temperature;humidity
68977;SHT31;56029;52.568;13.588;2023-04-09T00:01:54;2.72;95.86
68977;SHT31;56029;52.568;13.588;2023-04-09T00:04:19;2.72;95.68
68977;SHT31;56029;52.568;13.588;2023-04-09T00:06:47;2.67;95.62
68977;SHT31;56029;52.568;13.588;2023-04-09T00:09:12;2.67;95.48
68977;SHT31;56029;52.568;13.588;2023-04-09T00:11:38;2.64;96.13
68977;SHT31;56029;52.568;13.588;2023-04-09T00:14:03;2.62;96.06
68977;SHT31;56029;52.568;13.588;2023-04-09T00:16:29;2.54;96.10
68977;SHT31;56029;52.568;13.588;2023-04-09T00:18:54;2.43;96.41
68977;SHT31;56029;52.568;13.588;2023-04-09T00:21:20;2.32;96.69
68977;SHT31;56029;52.568;13.588;2023-04-09T00:23:46;2.22;96.63
68977;SHT31;56029;52.568;13.588;2023-04-09T00:26:12;2.14;96.85
68977;SHT31;56029;52.568;13.588;2023-04-09T00:28:37;2.05;96.96
68977;SHT31;56029;52.568;13.588;2023-04-09T00:31:03;1.98;97.00
68977;SHT31;56029;52.568;13.588;2023-04-09T00:33:28;1.95;96.99
68977;SHT31;56029;52.568;13.588;2023-04-09T00:35:54;2.01;96.97
68977;SHT31;56029;52.568;13.588;2023-04-09T00:38:20;1.98;96.81
68977;SHT31;56029;52.568;13.588;2023-04-09T00:40:49;2.00;96.78
68977;SHT31;56029;52.568;13.588;2023-04-09T00:43:16;1.98;96.69
68977;SHT31;56029;52.568;13.588;2023-04-09T00:45:43;1.98;96.68
68977;SHT31;56029;52.568;13.588;2023-04-09T00:48:10;2.00;96.76
68977;SHT31;56029;52.568;13.588;2023-04-09T00:50:36;2.01;96.73
68977;SHT31;56029;52.568;13.588;2023-04-09T00:53:01;1.98;96.75
68977;SHT31;56029;52.568;13.588;2023-04-09T00:55:28;1.95;96.72
68977;SHT31;56029;52.568;13.588;2023-04-09T00:57:54;1.93;96.67
68977;SHT31;56029;52.568;13.588;2023-04-09T01:00:19;1.90;96.73
68977;SHT31;56029;52.568;13.588;2023-04-09T01:02:45;1.90;96.65
68977;SHT31;56029;52.568;13.588;2023-04-09T01:05:12;1.85;96.73
68977;SHT31;56029;52.568;13.588;2023-04-09T01:08:04;1.84;96.63
68977;SHT31;56029;52.568;13.588;2023-04-09T01:13:25;1.71;96.57
68977;SHT31;56029;52.568;13.588;2023-04-09T01:15:56;1.67;96.56
68977;SHT31;56029;52.568;13.588;2023-04-09T01:18:34;1.66;96.64
68977;SHT31;56029;52.568;13.588;2023-04-09T01:21:12;1.63;96.61
68977;SHT31;56029;52.568;13.588;2023-04-09T01:29:01;1.52;97.04
68977;SHT31;56029;52.568;13.588;2023-04-09T01:31:30;1.52;97.12
68977;SHT31;56029;52.568;13.588;2023-04-09T01:33:56;1.49;97.11
68977;SHT31;56029;52.568;13.588;2023-04-09T01:36:23;1.49;97.01
68977;SHT31;56029;52.568;13.588;2023-04-09T01:38:50;1.44;97.26
68977;SHT31;56029;52.568;13.588;2023-04-09T01:41:18;1.43;97.45
68977;SHT31;56029;52.568;13.588;2023-04-09T01:43:47;1.43;97.54
68977;SHT31;56029;52.568;13.588;2023-04-09T01:46:14;1.35;97.17
68977;SHT31;56029;52.568;13.588;2023-04-09T01:48:41;1.28;96.86
68977;SHT31;56029;52.568;13.588;2023-04-09T01:51:08;1.19;96.75
68977;SHT31;56029;52.568;13.588;2023-04-09T01:53:33;1.15;97.97
68977;SHT31;56029;52.568;13.588;2023-04-09T01:55:59;1.12;97.98
68977;SHT31;56029;52.568;13.588;2023-04-09T01:58:26;1.06;97.63
68977;SHT31;56029;52.568;13.588;2023-04-09T02:00:58;0.92;97.14
68977;SHT31;56029;52.568;13.588;2023-04-09T02:03:30;0.88;97.61
68977;SHT31;56029;52.568;13.588;2023-04-09T02:08:51;0.88;98.23
68977;SHT31;56029;52.568;13.588;2023-04-09T02:11:18;0.87;97.71
68977;SHT31;56029;52.568;13.588;2023-04-09T02:13:46;0.83;97.28
68977;SHT31;56029;52.568;13.588;2023-04-09T02:16:14;0.73;97.30
68977;SHT31;56029;52.568;13.588;2023-04-09T02:18:40;0.73;97.65
68977;SHT31;56029;52.568;13.588;2023-04-09T02:21:05;0.70;97.88
68977;SHT31;56029;52.568;13.588;2023-04-09T02:23:31;0.64;97.96
68977;SHT31;56029;52.568;13.588;2023-04-09T02:25:58;0.56;98.22
68977;SHT31;56029;52.568;13.588;2023-04-09T02:28:23;0.52;98.25
68977;SHT31;56029;52.568;13.588;2023-04-09T02:30:49;0.53;98.27
68977;SHT31;56029;52.568;13.588;2023-04-09T02:33:15;0.47;98.57
68977;SHT31;56029;52.568;13.588;2023-04-09T02:35:40;0.43;99.40
68977;SHT31;56029;52.568;13.588;2023-04-09T02:38:07;0.46;99.80
68977;SHT31;56029;52.568;13.588;2023-04-09T02:40:41;0.44;98.91
68977;SHT31;56029;52.568;13.588;2023-04-09T02:43:08;0.50;99.99
68977;SHT31;56029;52.568;13.588;2023-04-09T02:45:34;0.64;99.99
68977;SHT31;56029;52.568;13.588;2023-04-09T02:48:00;0.67;99.99
68977;SHT31;56029;52.568;13.588;2023-04-09T02:50:25;0.61;99.99
68977;SHT31;56029;52.568;13.588;2023-04-09T02:52:51;0.57;99.99
68977;SHT31;56029;52.568;13.588;2023-04-09T02:55:17;0.52;99.99
68977;SHT31;56029;52.568;13.588;2023-04-09T02:57:43;0.46;99.99
68977;SHT31;56029;52.568;13.588;2023-04-09T03:00:09;0.50;99.99
68977;SHT31;56029;52.568;13.588;2023-04-09T03:02:35;0.57;99.99
68977;SHT31;56029;52.568;13.588;2023-04-09T03:05:00;0.68;99.99
68977;SHT31;56029;52.568;13.588;2023-04-09T03:07:26;0.73;99.99
68977;SHT31;56029;52.568;13.588;2023-04-09T03:09:52;0.80;99.99
68977;SHT31;56029;52.568;13.588;2023-04-09T03:12:17;0.92;99.99
68977;SHT31;56029;52.568;13.588;2023-04-09T03:14:43;1.04;99.99
68977;SHT31;56029;52.568;13.588;2023-04-09T03:17:08;1.11;99.99
68977;SHT31;56029;52.568;13.588;2023-04-09T03:19:34;1.15;99.99
68977;SHT31;56029;52.568;13.588;2023-04-09T03:21:59;1.21;99.99
68977;SHT31;56029;52.568;13.588;2023-04-09T03:24:25;1.28;99.99
68977;SHT31;56029;52.568;13.588;2023-04-09T03:26:50;1.36;99.99
68977;SHT31;56029;52.568;13.588;2023-04-09T03:29:16;1.47;99.99
68977;SHT31;56029;52.568;13.588;2023-04-09T03:31:41;1.54;99.99
68977;SHT31;56029;52.568;13.588;2023-04-09T03:34:07;1.60;99.99
68977;SHT31;56029;52.568;13.588;2023-04-09T03:36:32;1.57;99.99
68977;SHT31;56029;52.568;13.588;2023-04-09T03:38:58;1.59;99.99
68977;SHT31;56029;52.568;13.588;2023-04-09T03:41:25;1.64;99.99
68977;SHT31;56029;52.568;13.588;2023-04-09T03:43:51;1.71;99.99
68977;SHT31;56029;52.568;13.588;2023-04-09T03:46:17;1.84;99.99
68977;SHT31;56029;52.568;13.588;2023-04-09T03:48:43;1.90;99.99
68977;SHT31;56029;52.568;13.588;2023-04-09T03:51:16;1.95;99.99
68977;SHT31;56029;52.568;13.588;2023-04-09T03:53:42;2.05;99.99
68977;SHT31;56029;52.568;13.588;2023-04-09T03:56:08;2.11;99.99
68977;SHT31;56029;52.568;13.588;2023-04-09T03:58:34;2.20;99.99
68977;SHT31;56029;52.568;13.588;2023-04-09T04:00:59;2.35;99.99
68977;SHT31;56029;52.568;13.588;2023-04-09T04:03:25;2.42;99.99
68977;SHT31;56029;52.568;13.588;2023-04-09T04:05:51;2.43;99.99
68977;SHT31;56029;52.568;13.588;2023-04-09T04:08:16;2.46;99.99
68977;SHT31;56029;52.568;13.588;2023-04-09T04:10:42;2.57;99.99
68977;SHT31;56029;52.568;13.588;2023-04-09T04:13:08;2.63;99.99
68977;SHT31;56029;52.568;13.588;2023-04-09T04:15:39;2.73;99.99
68977;SHT31;56029;52.568;13.588;2023-04-09T04:18:05;2.70;99.99
68977;SHT31;56029;52.568;13.588;2023-04-09T04:20:34;2.79;99.99
68977;SHT31;56029;52.568;13.588;2023-04-09T04:23:00;2.83;99.99
68977;SHT31;56029;52.568;13.588;2023-04-09T04:25:26;2.89;99.99
68977;SHT31;56029;52.568;13.588;2023-04-09T04:27:51;2.91;99.99
68977;SHT31;56029;52.568;13.588;2023-04-09T04:30:18;2.94;99.99
68977;SHT31;56029;52.568;13.588;2023-04-09T04:32:44;2.93;99.99
68977;SHT31;56029;52.568;13.588;2023-04-09T04:35:09;2.97;99.99
68977;SHT31;56029;52.568;13.588;2023-04-09T04:37:35;2.96;99.99
68977;SHT31;56029;52.568;13.588;2023-04-09T04:40:01;2.97;99.99
68977;SHT31;56029;52.568;13.588;2023-04-09T04:42:27;3.08;99.99
68977;SHT31;56029;52.568;13.588;2023-04-09T04:44:52;3.12;99.99
68977;SHT31;56029;52.568;13.588;2023-04-09T04:47:18;3.29;99.99
68977;SHT31;56029;52.568;13.588;2023-04-09T04:49:44;3.39;99.99
68977;SHT31;56029;52.568;13.588;2023-04-09T04:52:10;3.55;99.99
68977;SHT31;56029;52.568;13.588;2023-04-09T04:54:35;3.68;99.99
68977;SHT31;56029;52.568;13.588;2023-04-09T04:57:01;3.75;99.99
68977;SHT31;56029;52.568;13.588;2023-04-09T04:59:26;3.82;99.99
68977;SHT31;56029;52.568;13.588;2023-04-09T05:01:52;3.87;99.99
68977;SHT31;56029;52.568;13.588;2023-04-09T05:04:18;3.87;99.99
68977;SHT31;56029;52.568;13.588;2023-04-09T05:06:43;3.89;99.99
68977;SHT31;56029;52.568;13.588;2023-04-09T05:09:09;3.94;99.99
68977;SHT31;56029;52.568;13.588;2023-04-09T05:11:34;3.90;99.99
68977;SHT31;56029;52.568;13.588;2023-04-09T05:14:00;4.00;99.99
68977;SHT31;56029;52.568;13.588;2023-04-09T05:16:26;3.99;99.99
68977;SHT31;56029;52.568;13.588;2023-04-09T05:18:52;4.01;99.99
68977;SHT31;56029;52.568;13.588;2023-04-09T05:21:33;4.04;99.99
68977;SHT31;56029;52.568;13.588;2023-04-09T05:23:59;4.07;99.99
68977;SHT31;56029;52.568;13.588;2023-04-09T05:26:25;4.08;99.99
68977;SHT31;56029;52.568;13.588;2023-04-09T05:28:51;4.04;99.99
68977;SHT31;56029;52.568;13.588;2023-04-09T05:31:18;3.97;99.99
68977;SHT31;56029;52.568;13.588;2023-04-09T05:33:43;4.08;99.99
68977;SHT31;56029;52.568;13.588;2023-04-09T05:36:15;4.08;99.99
68977;SHT31;56029;52.568;13.588;2023-04-09T05:38:41;4.17;99.99
68977;SHT31;56029;52.568;13.588;2023-04-09T05:41:08;4.13;99.99
68977;SHT31;56029;52.568;13.588;2023-04-09T05:43:33;4.14;99.99
68977;SHT31;56029;52.568;13.588;2023-04-09T05:45:59;4.18;99.99
68977;SHT31;56029;52.568;13.588;2023-04-09T05:48:25;4.18;99.99
68977;SHT31;56029;52.568;13.588;2023-04-09T05:54:11;4.25;99.99
68977;SHT31;56029;52.568;13.588;2023-04-09T05:56:37;4.24;99.99
68977;SHT31;56029;52.568;13.588;2023-04-09T05:59:02;4.25;99.99
68977;SHT31;56029;52.568;13.588;2023-04-09T06:01:29;4.27;99.99
68977;SHT31;56029;52.568;13.588;2023-04-09T06:03:55;4.27;99.99
68977;SHT31;56029;52.568;13.588;2023-04-09T06:06:21;4.25;99.99
68977;SHT31;56029;52.568;13.588;2023-04-09T06:08:47;4.28;99.99
68977;SHT31;56029;52.568;13.588;2023-04-09T06:11:12;4.28;99.99
68977;SHT31;56029;52.568;13.588;2023-04-09T06:13:38;4.25;99.99
68977;SHT31;56029;52.568;13.588;2023-04-09T06:16:06;4.18;99.99
68977;SHT31;56029;52.568;13.588;2023-04-09T06:18:33;4.28;99.99
68977;SHT31;56029;52.568;13.588;2023-04-09T06:21:06;4.37;99.99
68977;SHT31;56029;52.568;13.588;2023-04-09T06:23:33;4.36;99.99
68977;SHT31;56029;52.568;13.588;2023-04-09T06:26:00;4.40;99.99
68977;SHT31;56029;52.568;13.588;2023-04-09T06:28:27;4.49;99.99
68977;SHT31;56029;52.568;13.588;2023-04-09T06:30:54;4.52;99.99
68977;SHT31;56029;52.568;13.588;2023-04-09T06:33:20;4.54;99.99
68977;SHT31;56029;52.568;13.588;2023-04-09T06:35:46;4.52;99.99
68977;SHT31;56029;52.568;13.588;2023-04-09T06:38:12;4.52;99.99
68977;SHT31;56029;52.568;13.588;2023-04-09T06:40:38;4.55;99.99
68977;SHT31;56029;52.568;13.588;2023-04-09T06:43:04;4.52;99.99
68977;SHT31;56029;52.568;13.588;2023-04-09T06:45:31;4.52;99.99
68977;SHT31;56029;52.568;13.588;2023-04-09T06:47:58;4.44;99.99
68977;SHT31;56029;52.568;13.588;2023-04-09T06:50:43;4.41;99.99
68977;SHT31;56029;52.568;13.588;2023-04-09T06:53:14;4.47;99.99
68977;SHT31;56029;52.568;13.588;2023-04-09T06:55:40;4.54;99.99
68977;SHT31;56029;52.568;13.588;2023-04-09T06:58:06;4.52;99.99
68977;SHT31;56029;52.568;13.588;2023-04-09T07:00:32;4.54;99.99
68977;SHT31;56029;52.568;13.588;2023-04-09T07:02:57;4.55;99.99
68977;SHT31;56029;52.568;13.588;2023-04-09T07:05:23;4.42;99.99
68977;SHT31;56029;52.568;13.588;2023-04-09T07:07:48;4.62;99.99
68977;SHT31;56029;52.568;13.588;2023-04-09T07:10:14;4.73;99.99
68977;SHT31;56029;52.568;13.588;2023-04-09T07:12:40;4.78;99.99
68977;SHT31;56029;52.568;13.588;2023-04-09T07:15:06;4.90;99.99
68977;SHT31;56029;52.568;13.588;2023-04-09T07:17:32;4.89;99.99
68977;SHT31;56029;52.568;13.588;2023-04-09T07:19:58;5.01;99.99
68977;SHT31;56029;52.568;13.588;2023-04-09T07:22:25;5.00;99.99
68977;SHT31;56029;52.568;13.588;2023-04-09T07:24:51;4.96;99.99
68977;SHT31;56029;52.568;13.588;2023-04-09T07:27:22;4.90;99.99
68977;SHT31;56029;52.568;13.588;2023-04-09T07:29:49;5.00;99.99
68977;SHT31;56029;52.568;13.588;2023-04-09T07:32:14;5.05;99.99
68977;SHT31;56029;52.568;13.588;2023-04-09T07:34:42;4.96;99.99
68977;SHT31;56029;52.568;13.588;2023-04-09T07:37:08;5.01;99.99
68977;SHT31;56029;52.568;13.588;2023-04-09T07:39:34;5.10;99.99
68977;SHT31;56029;52.568;13.588;2023-04-09T07:42:04;5.17;99.99
68977;SHT31;56029;52.568;13.588;2023-04-09T07:44:34;5.28;99.99
68977;SHT31;56029;52.568;13.588;2023-04-09T07:47:01;5.24;99.99
68977;SHT31;56029;52.568;13.588;2023-04-09T07:49:27;5.24;99.99
68977;SHT31;56029;52.568;13.588;2023-04-09T07:51:53;5.37;99.99
68977;SHT31;56029;52.568;13.588;2023-04-09T07:54:19;5.41;99.99
68977;SHT31;56029;52.568;13.588;2023-04-09T07:56:47;5.45;99.99
68977;SHT31;56029;52.568;13.588;2023-04-09T07:59:13;5.44;99.99
68977;SHT31;56029;52.568;13.588;2023-04-09T08:01:42;5.48;99.99
68977;SHT31;56029;52.568;13.588;2023-04-09T08:04:10;5.47;99.99
68977;SHT31;56029;52.568;13.588;2023-04-09T08:06:37;5.48;99.99
68977;SHT31;56029;52.568;13.588;2023-04-09T08:09:03;5.34;99.99
68977;SHT31;56029;52.568;13.588;2023-04-09T08:11:32;5.38;99.99
68977;SHT31;56029;52.568;13.588;2023-04-09T08:13:58;5.43;99.99
68977;SHT31;56029;52.568;13.588;2023-04-09T08:16:30;5.34;99.99
68977;SHT31;56029;52.568;13.588;2023-04-09T08:22:22;5.76;99.99
68977;SHT31;56029;52.568;13.588;2023-04-09T08:24:52;5.95;99.99
68977;SHT31;56029;52.568;13.588;2023-04-09T08:27:18;5.82;99.99
68977;SHT31;56029;52.568;13.588;2023-04-09T08:29:44;5.81;99.99
68977;SHT31;56029;52.568;13.588;2023-04-09T08:32:10;5.81;99.99
68977;SHT31;56029;52.568;13.588;2023-04-09T08:34:37;5.85;99.99
68977;SHT31;56029;52.568;13.588;2023-04-09T08:37:02;5.96;99.99
68977;SHT31;56029;52.568;13.588;2023-04-09T08:39:29;5.94;99.99
68977;SHT31;56029;52.568;13.588;2023-04-09T08:41:58;6.02;99.99
68977;SHT31;56029;52.568;13.588;2023-04-09T08:44:28;5.98;99.99
68977;SHT31;56029;52.568;13.588;2023-04-09T08:46:54;5.99;99.99
68977;SHT31;56029;52.568;13.588;2023-04-09T08:49:20;6.07;99.99
68977;SHT31;56029;52.568;13.588;2023-04-09T08:51:47;5.94;99.99
68977;SHT31;56029;52.568;13.588;2023-04-09T08:54:14;5.95;99.99
68977;SHT31;56029;52.568;13.588;2023-04-09T08:56:41;6.06;99.99
68977;SHT31;56029;52.568;13.588;2023-04-09T08:59:08;6.12;99.99
68977;SHT31;56029;52.568;13.588;2023-04-09T09:01:33;6.07;99.99
68977;SHT31;56029;52.568;13.588;2023-04-09T09:04:02;6.15;99.99
68977;SHT31;56029;52.568;13.588;2023-04-09T09:06:30;6.17;99.99
68977;SHT31;56029;52.568;13.588;2023-04-09T09:09:14;6.15;99.99
68977;SHT31;56029;52.568;13.588;2023-04-09T09:11:42;6.20;99.99
68977;SHT31;56029;52.568;13.588;2023-04-09T09:14:14;6.20;99.92
68977;SHT31;56029;52.568;13.588;2023-04-09T09:16:42;6.24;99.99
68977;SHT31;56029;52.568;13.588;2023-04-09T09:21:56;6.40;99.86
68977;SHT31;56029;52.568;13.588;2023-04-09T09:24:25;6.44;99.99
68977;SHT31;56029;52.568;13.588;2023-04-09T09:26:51;6.53;99.99
68977;SHT31;56029;52.568;13.588;2023-04-09T09:29:19;6.53;99.37
68977;SHT31;56029;52.568;13.588;2023-04-09T09:31:46;6.47;98.62
68977;SHT31;56029;52.568;13.588;2023-04-09T09:34:14;6.48;98.99
68977;SHT31;56029;52.568;13.588;2023-04-09T09:36:42;6.61;98.41
68977;SHT31;56029;52.568;13.588;2023-04-09T09:39:08;6.65;97.96
68977;SHT31;56029;52.568;13.588;2023-04-09T09:41:35;6.78;97.85
68977;SHT31;56029;52.568;13.588;2023-04-09T09:44:01;6.87;97.05
68977;SHT31;56029;52.568;13.588;2023-04-09T09:46:30;6.88;96.73
68977;SHT31;56029;52.568;13.588;2023-04-09T09:48:58;6.98;96.63
68977;SHT31;56029;52.568;13.588;2023-04-09T09:51:25;7.05;96.64
68977;SHT31;56029;52.568;13.588;2023-04-09T09:53:55;7.18;96.82
68977;SHT31;56029;52.568;13.588;2023-04-09T09:56:29;7.39;96.35
68977;SHT31;56029;52.568;13.588;2023-04-09T09:59:01;7.53;95.50
68977;SHT31;56029;52.568;13.588;2023-04-09T10:01:29;7.63;94.93
68977;SHT31;56029;52.568;13.588;2023-04-09T10:03:56;7.71;95.59
68977;SHT31;56029;52.568;13.588;2023-04-09T10:06:24;7.75;94.11
68977;SHT31;56029;52.568;13.588;2023-04-09T10:08:55;7.78;94.41
68977;SHT31;56029;52.568;13.588;2023-04-09T10:11:22;7.78;94.20
68977;SHT31;56029;52.568;13.588;2023-04-09T10:13:56;7.77;93.63
68977;SHT31;56029;52.568;13.588;2023-04-09T10:16:24;7.80;94.33
68977;SHT31;56029;52.568;13.588;2023-04-09T10:19:03;7.91;93.28
68977;SHT31;56029;52.568;13.588;2023-04-09T10:21:56;8.02;93.32
68977;SHT31;56029;52.568;13.588;2023-04-09T10:24:27;7.98;93.03
68977;SHT31;56029;52.568;13.588;2023-04-09T10:26:53;8.03;93.08
68977;SHT31;56029;52.568;13.588;2023-04-09T10:29:26;8.18;93.58
68977;SHT31;56029;52.568;13.588;2023-04-09T10:32:07;8.08;91.38
68977;SHT31;56029;52.568;13.588;2023-04-09T10:34:40;8.13;91.47
68977;SHT31;56029;52.568;13.588;2023-04-09T10:37:07;8.22;91.10
68977;SHT31;56029;52.568;13.588;2023-04-09T10:39:38;8.43;91.12
68977;SHT31;56029;52.568;13.588;2023-04-09T10:42:38;8.54;90.18
68977;SHT31;56029;52.568;13.588;2023-04-09T10:45:13;8.48;90.34
68977;SHT31;56029;52.568;13.588;2023-04-09T10:47:40;8.57;90.74
68977;SHT31;56029;52.568;13.588;2023-04-09T10:50:18;8.79;90.04
68977;SHT31;56029;52.568;13.588;2023-04-09T10:52:44;8.84;89.99
68977;SHT31;56029;52.568;13.588;2023-04-09T10:55:29;8.84;90.10
68977;SHT31;56029;52.568;13.588;2023-04-09T10:57:56;8.71;90.19
68977;SHT31;56029;52.568;13.588;2023-04-09T11:00:22;8.90;89.37
68977;SHT31;56029;52.568;13.588;2023-04-09T11:03:04;8.81;89.39
68977;SHT31;56029;52.568;13.588;2023-04-09T11:05:33;9.14;89.61
68977;SHT31;56029;52.568;13.588;2023-04-09T11:08:08;8.96;89.34
68977;SHT31;56029;52.568;13.588;2023-04-09T11:10:35;9.12;88.85
68977;SHT31;56029;52.568;13.588;2023-04-09T11:13:01;9.12;87.39
68977;SHT31;56029;52.568;13.588;2023-04-09T11:15:28;8.84;87.80
68977;SHT31;56029;52.568;13.588;2023-04-09T11:17:53;9.21;87.51
68977;SHT31;56029;52.568;13.588;2023-04-09T11:20:21;9.34;88.00
68977;SHT31;56029;52.568;13.588;2023-04-09T11:22:50;9.34;87.88
68977;SHT31;56029;52.568;13.588;2023-04-09T11:25:21;9.15;88.19
68977;SHT31;56029;52.568;13.588;2023-04-09T11:27:47;9.48;86.96
68977;SHT31;56029;52.568;13.588;2023-04-09T11:30:13;9.69;88.04
68977;SHT31;56029;52.568;13.588;2023-04-09T11:32:39;9.53;87.70
68977;SHT31;56029;52.568;13.588;2023-04-09T11:35:16;9.31;87.75
68977;SHT31;56029;52.568;13.588;2023-04-09T11:37:42;9.18;87.91
68977;SHT31;56029;52.568;13.588;2023-04-09T11:40:18;9.17;87.25
68977;SHT31;56029;52.568;13.588;2023-04-09T11:42:46;9.21;87.87
68977;SHT31;56029;52.568;13.588;2023-04-09T11:45:14;9.21;87.53
68977;SHT31;56029;52.568;13.588;2023-04-09T11:47:40;9.50;88.67
68977;SHT31;56029;52.568;13.588;2023-04-09T11:50:07;9.34;87.67
68977;SHT31;56029;52.568;13.588;2023-04-09T11:52:33;9.52;87.19
68977;SHT31;56029;52.568;13.588;2023-04-09T11:55:01;9.49;87.55
68977;SHT31;56029;52.568;13.588;2023-04-09T11:57:58;9.77;87.26
68977;SHT31;56029;52.568;13.588;2023-04-09T12:00:26;9.89;87.06
68977;SHT31;56029;52.568;13.588;2023-04-09T12:03:01;9.90;86.87
68977;SHT31;56029;52.568;13.588;2023-04-09T12:05:29;9.91;87.57
68977;SHT31;56029;52.568;13.588;2023-04-09T12:08:02;10.13;86.63
68977;SHT31;56029;52.568;13.588;2023-04-09T12:10:35;10.01;86.88
68977;SHT31;56029;52.568;13.588;2023-04-09T12:13:05;10.04;86.88
68977;SHT31;56029;52.568;13.588;2023-04-09T12:15:34;9.96;88.51
68977;SHT31;56029;52.568;13.588;2023-04-09T12:17:59;9.80;87.65
68977;SHT31;56029;52.568;13.588;2023-04-09T12:22:55;9.70;87.76
68977;SHT31;56029;52.568;13.588;2023-04-09T12:25:21;9.58;88.79
68977;SHT31;56029;52.568;13.588;2023-04-09T12:27:47;9.60;88.39
68977;SHT31;56029;52.568;13.588;2023-04-09T12:30:13;9.53;87.34
68977;SHT31;56029;52.568;13.588;2023-04-09T12:32:38;9.46;86.78
68977;SHT31;56029;52.568;13.588;2023-04-09T12:35:04;9.50;87.71
68977;SHT31;56029;52.568;13.588;2023-04-09T12:37:30;9.65;87.61
68977;SHT31;56029;52.568;13.588;2023-04-09T12:39:55;9.60;88.25
68977;SHT31;56029;52.568;13.588;2023-04-09T12:42:21;9.65;87.26
68977;SHT31;56029;52.568;13.588;2023-04-09T12:44:47;9.63;87.32
68977;SHT31;56029;52.568;13.588;2023-04-09T12:47:12;9.82;88.00
68977;SHT31;56029;52.568;13.588;2023-04-09T12:49:38;9.89;87.17
68977;SHT31;56029;52.568;13.588;2023-04-09T12:52:04;10.04;86.66
68977;SHT31;56029;52.568;13.588;2023-04-09T12:54:30;10.35;87.97
68977;SHT31;56029;52.568;13.588;2023-04-09T12:56:55;10.30;86.80
68977;SHT31;56029;52.568;13.588;2023-04-09T12:59:21;10.21;87.16
68977;SHT31;56029;52.568;13.588;2023-04-09T13:01:47;10.38;87.38
68977;SHT31;56029;52.568;13.588;2023-04-09T13:04:13;10.24;85.91
68977;SHT31;56029;52.568;13.588;2023-04-09T13:06:38;10.22;86.86
68977;SHT31;56029;52.568;13.588;2023-04-09T13:09:04;10.41;87.44
68977;SHT31;56029;52.568;13.588;2023-04-09T13:11:31;10.41;85.78
68977;SHT31;56029;52.568;13.588;2023-04-09T13:13:56;10.30;86.17
68977;SHT31;56029;52.568;13.588;2023-04-09T13:16:22;10.66;86.73
68977;SHT31;56029;52.568;13.588;2023-04-09T13:18:48;10.64;85.24
68977;SHT31;56029;52.568;13.588;2023-04-09T13:21:16;10.35;84.45
68977;SHT31;56029;52.568;13.588;2023-04-09T13:23:43;10.52;85.80
68977;SHT31;56029;52.568;13.588;2023-04-09T13:26:09;10.55;85.19
68977;SHT31;56029;52.568;13.588;2023-04-09T13:28:35;10.72;85.89
68977;SHT31;56029;52.568;13.588;2023-04-09T13:31:01;10.83;85.28
68977;SHT31;56029;52.568;13.588;2023-04-09T13:33:27;10.88;84.04
68977;SHT31;56029;52.568;13.588;2023-04-09T13:35:53;10.79;83.35
68977;SHT31;56029;52.568;13.588;2023-04-09T13:38:19;10.82;84.18
68977;SHT31;56029;52.568;13.588;2023-04-09T13:40:44;10.76;83.72
68977;SHT31;56029;52.568;13.588;2023-04-09T13:43:10;10.77;82.67
68977;SHT31;56029;52.568;13.588;2023-04-09T13:45:36;10.80;82.91
68977;SHT31;56029;52.568;13.588;2023-04-09T13:48:01;10.77;83.86
68977;SHT31;56029;52.568;13.588;2023-04-09T13:50:27;10.82;83.18
68977;SHT31;56029;52.568;13.588;2023-04-09T13:52:53;10.72;82.33
68977;SHT31;56029;52.568;13.588;2023-04-09T13:55:18;10.95;82.91
68977;SHT31;56029;52.568;13.588;2023-04-09T13:57:44;10.99;82.12
68977;SHT31;56029;52.568;13.588;2023-04-09T14:00:10;10.95;81.91
68977;SHT31;56029;52.568;13.588;2023-04-09T14:02:36;11.06;83.02
68977;SHT31;56029;52.568;13.588;2023-04-09T14:05:02;11.04;82.19
68977;SHT31;56029;52.568;13.588;2023-04-09T14:07:28;11.09;82.10
68977;SHT31;56029;52.568;13.588;2023-04-09T14:09:54;11.07;82.74
68977;SHT31;56029;52.568;13.588;2023-04-09T14:12:21;11.27;83.42
68977;SHT31;56029;52.568;13.588;2023-04-09T14:15:02;11.35;82.71
68977;SHT31;56029;52.568;13.588;2023-04-09T14:17:31;11.34;81.82
68977;SHT31;56029;52.568;13.588;2023-04-09T14:19:56;11.38;81.21
68977;SHT31;56029;52.568;13.588;2023-04-09T14:22:25;11.43;80.99
68977;SHT31;56029;52.568;13.588;2023-04-09T14:24:50;11.51;79.05
68977;SHT31;56029;52.568;13.588;2023-04-09T14:27:16;11.38;79.12
68977;SHT31;56029;52.568;13.588;2023-04-09T14:29:41;11.45;79.88
68977;SHT31;56029;52.568;13.588;2023-04-09T14:32:07;11.44;79.83
68977;SHT31;56029;52.568;13.588;2023-04-09T14:34:33;11.43;78.86
68977;SHT31;56029;52.568;13.588;2023-04-09T14:36:59;11.47;79.83
68977;SHT31;56029;52.568;13.588;2023-04-09T14:39:24;11.61;80.33
68977;SHT31;56029;52.568;13.588;2023-04-09T14:41:50;11.81;79.37
68977;SHT31;56029;52.568;13.588;2023-04-09T14:44:16;11.71;79.60
68977;SHT31;56029;52.568;13.588;2023-04-09T14:46:42;11.85;80.26
68977;SHT31;56029;52.568;13.588;2023-04-09T14:49:07;11.86;79.22
68977;SHT31;56029;52.568;13.588;2023-04-09T14:51:33;11.88;79.33
68977;SHT31;56029;52.568;13.588;2023-04-09T14:53:59;11.95;78.30
68977;SHT31;56029;52.568;13.588;2023-04-09T14:56:26;11.96;78.62
68977;SHT31;56029;52.568;13.588;2023-04-09T14:58:51;12.05;78.87
68977;SHT31;56029;52.568;13.588;2023-04-09T15:01:17;12.06;77.71
68977;SHT31;56029;52.568;13.588;2023-04-09T15:03:42;12.02;77.46
68977;SHT31;56029;52.568;13.588;2023-04-09T15:06:12;11.99;75.29
68977;SHT31;56029;52.568;13.588;2023-04-09T15:08:37;11.93;75.06
68977;SHT31;56029;52.568;13.588;2023-04-09T15:11:03;11.93;76.12
68977;SHT31;56029;52.568;13.588;2023-04-09T15:13:29;11.95;76.78
68977;SHT31;56029;52.568;13.588;2023-04-09T15:15:55;12.08;77.02
68977;SHT31;56029;52.568;13.588;2023-04-09T15:18:20;12.13;77.12
68977;SHT31;56029;52.568;13.588;2023-04-09T15:20:46;12.22;76.57
68977;SHT31;56029;52.568;13.588;2023-04-09T15:23:12;12.25;76.58
68977;SHT31;56029;52.568;13.588;2023-04-09T15:25:38;12.28;76.28
68977;SHT31;56029;52.568;13.588;2023-04-09T15:28:04;12.23;76.08
68977;SHT31;56029;52.568;13.588;2023-04-09T15:30:30;12.23;75.84
68977;SHT31;56029;52.568;13.588;2023-04-09T15:32:55;12.28;75.99
68977;SHT31;56029;52.568;13.588;2023-04-09T15:35:21;12.25;75.90
68977;SHT31;56029;52.568;13.588;2023-04-09T15:37:54;12.37;76.36
68977;SHT31;56029;52.568;13.588;2023-04-09T15:40:19;12.36;75.43
68977;SHT31;56029;52.568;13.588;2023-04-09T15:42:45;12.49;74.85
68977;SHT31;56029;52.568;13.588;2023-04-09T15:45:13;12.78;74.58
68977;SHT31;56029;52.568;13.588;2023-04-09T15:47:39;13.07;72.16
68977;SHT31;56029;52.568;13.588;2023-04-09T15:50:05;13.73;72.08
68977;SHT31;56029;52.568;13.588;2023-04-09T15:52:31;13.83;71.97